createdAt,value
2018-03-04T00:01:02.223Z,24.30
2018-03-04T00:03:37.492Z,31.10
2018-03-04T00:06:11.689Z,29.23
2018-03-04T00:08:46.795Z,31.47
2018-03-04T00:11:21.800Z,31.70
2018-03-04T00:13:57.291Z,28.07
2018-03-04T00:16:32.035Z,28.80
2018-03-04T00:19:07.588Z,28.40
2018-03-04T00:21:42.688Z,29.73
2018-03-04T00:24:17.052Z,30.83
2018-03-04T00:26:52.299Z,31.27
2018-03-04T00:29:27.036Z,31.90
2018-03-04T00:32:02.745Z,43.42
2018-03-04T00:34:37.826Z,22.93
2018-03-04T00:37:12.887Z,19.93
2018-03-04T00:39:48.057Z,24.93
2018-03-04T00:42:22.879Z,28.23
2018-03-04T00:44:58.491Z,29.03
2018-03-04T00:47:33.560Z,30.67
2018-03-04T00:50:08.738Z,36.30
2018-03-04T00:52:43.834Z,28.13
2018-03-04T00:55:19.195Z,33.77
2018-03-04T00:57:54.237Z,27.13
2018-03-04T01:00:28.823Z,27.27
2018-03-04T01:03:03.812Z,31.65
2018-03-04T01:05:38.852Z,31.37
2018-03-04T01:08:14.182Z,31.43
2018-03-04T01:10:48.520Z,30.47
2018-03-04T01:13:23.667Z,28.97
2018-03-04T01:15:59.091Z,33.10
2018-03-04T01:18:35.107Z,31.50
2018-03-04T01:21:10.276Z,32.53
2018-03-04T01:23:45.219Z,24.60
2018-03-04T01:26:20.015Z,35.87
2018-03-04T01:28:55.123Z,34.37
2018-03-04T01:31:30.408Z,33.23
2018-03-04T01:34:05.696Z,25.10
2018-03-04T01:36:40.975Z,34.83
2018-03-04T01:39:15.396Z,36.33
2018-03-04T01:41:52.606Z,32.35
2018-03-04T01:44:27.590Z,18.70
2018-03-04T01:47:02.847Z,39.08
2018-03-04T01:49:37.991Z,39.85
2018-03-04T01:52:12.901Z,37.55
2018-03-04T01:54:48.021Z,39.80
2018-03-04T01:57:23.211Z,30.77
2018-03-04T01:59:57.857Z,25.13
2018-03-04T02:02:32.536Z,29.30
2018-03-04T02:05:07.868Z,27.65
2018-03-04T02:07:42.859Z,26.77
2018-03-04T02:10:18.047Z,41.20
2018-03-04T02:12:53.307Z,33.97
2018-03-04T02:15:28.371Z,32.13
2018-03-04T02:18:03.968Z,35.33
2018-03-04T02:20:39.286Z,26.33
2018-03-04T02:23:14.235Z,36.73
2018-03-04T02:25:49.412Z,17.17
2018-03-04T02:28:24.000Z,39.87
2018-03-04T02:30:59.065Z,14.43
2018-03-04T02:33:34.224Z,29.87
2018-03-04T02:36:09.075Z,41.90
2018-03-04T02:38:44.237Z,34.53
2018-03-04T02:41:19.920Z,40.97
2018-03-04T02:43:54.468Z,38.87
2018-03-04T02:46:29.956Z,28.48
2018-03-04T02:49:05.023Z,38.80
2018-03-04T02:51:40.061Z,29.00
2018-03-04T02:54:15.109Z,44.37
2018-03-04T02:56:51.379Z,29.82
2018-03-04T02:59:26.357Z,38.90
2018-03-04T03:02:01.113Z,31.47
2018-03-04T03:04:36.364Z,38.77
2018-03-04T03:07:11.638Z,29.03
2018-03-04T03:09:46.920Z,39.13
2018-03-04T03:12:22.125Z,31.77
2018-03-04T03:14:57.072Z,40.03
2018-03-04T03:17:32.275Z,35.17
2018-03-04T03:20:07.476Z,35.77
2018-03-04T03:22:42.347Z,29.43
2018-03-04T03:25:17.417Z,45.40
2018-03-04T03:27:52.979Z,42.90
2018-03-04T03:30:27.649Z,23.87
2018-03-04T03:33:02.696Z,30.90
2018-03-04T03:35:37.564Z,27.63
2018-03-04T03:38:12.511Z,26.40
2018-03-04T03:40:47.279Z,38.17
2018-03-04T03:43:22.235Z,29.90
2018-03-04T03:45:57.531Z,39.07
2018-03-04T03:48:32.583Z,36.87
2018-03-04T03:51:07.343Z,39.10
2018-03-04T03:53:42.419Z,28.77
2018-03-04T03:56:17.431Z,40.60
2018-03-04T03:58:52.379Z,15.53
2018-03-04T04:01:27.363Z,17.47
2018-03-04T04:04:02.644Z,25.77
2018-03-04T04:06:37.643Z,39.80
2018-03-04T04:09:12.624Z,42.53
2018-03-04T04:11:47.904Z,30.37
2018-03-04T04:14:23.062Z,34.93
2018-03-04T04:16:58.325Z,50.03
2018-03-04T04:19:32.995Z,34.65
2018-03-04T04:22:08.531Z,30.93
2018-03-04T04:24:43.252Z,39.47
2018-03-04T04:27:18.326Z,36.13
2018-03-04T04:29:53.212Z,32.53
2018-03-04T04:32:29.284Z,36.13
2018-03-04T04:35:03.872Z,47.07
2018-03-04T04:37:38.343Z,34.17
2018-03-04T04:40:13.591Z,38.40
2018-03-04T04:42:48.299Z,40.40
2018-03-04T04:45:23.501Z,13.27
2018-03-04T04:47:57.849Z,42.88
2018-03-04T04:50:33.409Z,44.78
2018-03-04T04:53:08.464Z,43.15
2018-03-04T04:55:43.599Z,45.30
2018-03-04T04:58:18.991Z,34.37
2018-03-04T05:00:53.700Z,39.03
2018-03-04T05:03:28.551Z,39.57
2018-03-04T05:06:04.063Z,10.73
2018-03-04T05:08:38.635Z,35.37
2018-03-04T05:11:13.903Z,24.50
2018-03-04T05:13:49.348Z,34.07
2018-03-04T05:16:24.423Z,21.43
2018-03-04T05:18:59.702Z,29.20
2018-03-04T05:21:35.419Z,40.33
2018-03-04T05:24:10.407Z,26.77
2018-03-04T05:26:45.071Z,32.33
2018-03-04T05:29:20.036Z,36.47
2018-03-04T05:31:54.908Z,44.37
2018-03-04T05:34:30.304Z,47.83
2018-03-04T05:37:05.688Z,36.37
2018-03-04T05:39:40.448Z,47.37
2018-03-04T05:42:15.439Z,43.77
2018-03-04T05:44:49.831Z,39.27
2018-03-04T05:47:24.609Z,20.50
2018-03-04T05:49:59.834Z,41.47
2018-03-04T05:52:34.599Z,42.60
2018-03-04T05:55:09.563Z,42.20
2018-03-04T05:57:44.635Z,42.63
2018-03-04T06:00:19.003Z,39.27
2018-03-04T06:02:53.973Z,26.57
2018-03-04T06:05:29.124Z,43.57
2018-03-04T06:08:05.871Z,38.30
2018-03-04T06:10:40.735Z,49.37
2018-03-04T06:13:15.984Z,38.17
2018-03-04T06:15:51.825Z,43.72
2018-03-04T06:18:27.520Z,38.97
2018-03-04T06:21:02.761Z,32.88
2018-03-04T06:23:37.856Z,40.10
2018-03-04T06:26:12.855Z,36.10
2018-03-04T06:28:47.702Z,30.07
2018-03-04T06:31:22.788Z,29.00
2018-03-04T06:33:57.967Z,54.63
2018-03-04T06:36:32.739Z,44.60
2018-03-04T06:39:08.271Z,41.22
2018-03-04T06:41:43.000Z,53.40
2018-03-04T06:44:17.783Z,55.00
2018-03-04T06:46:52.862Z,42.47
2018-03-04T06:49:27.738Z,49.50
2018-03-04T06:52:02.603Z,31.65
2018-03-04T06:54:37.647Z,51.70
2018-03-04T06:57:12.631Z,44.20
2018-03-04T06:59:47.790Z,49.50
2018-03-04T07:02:22.807Z,42.50
2018-03-04T07:04:57.996Z,41.03
2018-03-04T07:07:32.735Z,30.20
2018-03-04T07:10:08.075Z,43.57
2018-03-04T07:12:42.925Z,47.37
2018-03-04T07:15:18.678Z,30.37
2018-03-04T07:17:53.954Z,50.12
2018-03-04T07:20:28.919Z,49.13
2018-03-04T07:23:04.535Z,54.10
2018-03-04T07:25:39.933Z,48.87
2018-03-04T07:28:14.932Z,63.17
2018-03-04T07:30:50.041Z,50.87
2018-03-04T07:33:25.692Z,34.07
2018-03-04T07:36:01.037Z,44.60
2018-03-04T07:38:36.401Z,49.67
2018-03-04T07:41:11.527Z,43.77
2018-03-04T07:43:46.840Z,53.67
2018-03-04T07:46:21.834Z,28.97
2018-03-04T07:48:56.740Z,32.87
2018-03-04T07:51:31.604Z,33.03
2018-03-04T07:54:06.418Z,39.27
2018-03-04T07:56:41.292Z,37.50
2018-03-04T07:59:16.339Z,59.97
2018-03-04T08:01:52.324Z,47.50
2018-03-04T08:04:27.288Z,47.47
2018-03-04T08:07:02.248Z,51.00
2018-03-04T08:09:37.711Z,45.30
2018-03-04T08:12:12.869Z,58.10
2018-03-04T08:14:48.015Z,55.00
2018-03-04T08:17:22.991Z,54.73
2018-03-04T08:19:57.438Z,38.20
2018-03-04T08:22:31.903Z,51.30
2018-03-04T08:25:18.112Z,45.47
2018-03-04T08:28:04.287Z,47.97
2018-03-04T08:30:38.907Z,58.90
2018-03-04T08:33:14.183Z,49.80
2018-03-04T08:35:49.233Z,50.23
2018-03-04T08:38:24.843Z,65.67
2018-03-04T08:40:59.307Z,48.53
2018-03-04T08:43:34.379Z,60.40
2018-03-04T08:46:09.679Z,41.40
2018-03-04T08:48:45.036Z,73.17
2018-03-04T08:51:19.908Z,66.73
2018-03-04T08:53:55.215Z,51.90
2018-03-04T08:56:30.275Z,54.20
2018-03-04T08:59:05.456Z,31.30
2018-03-04T09:01:40.906Z,55.22
2018-03-04T09:04:15.937Z,39.93
2018-03-04T09:06:52.258Z,61.70
2018-03-04T09:09:27.966Z,65.63
2018-03-04T09:12:02.516Z,66.03
2018-03-04T09:14:38.112Z,58.07
2018-03-04T09:17:13.134Z,58.23
2018-03-04T09:19:48.129Z,57.13
2018-03-04T09:22:23.255Z,72.23
2018-03-04T09:24:58.170Z,59.30
2018-03-04T09:27:33.343Z,69.53
2018-03-04T09:30:08.259Z,62.25
2018-03-04T09:32:43.232Z,60.83
2018-03-04T09:35:18.039Z,64.97
2018-03-04T09:37:53.694Z,62.13
2018-03-04T09:40:28.347Z,42.67
2018-03-04T09:43:03.980Z,51.25
2018-03-04T09:45:39.006Z,66.00
2018-03-04T09:48:14.020Z,69.10
2018-03-04T09:50:49.368Z,64.43
2018-03-04T09:53:24.366Z,62.97
2018-03-04T09:55:59.366Z,67.37
2018-03-04T09:58:34.214Z,63.50
2018-03-04T10:01:09.132Z,59.33
2018-03-04T10:03:44.155Z,61.60
2018-03-04T10:06:19.139Z,74.50
2018-03-04T10:08:54.728Z,60.50
2018-03-04T10:11:29.875Z,64.10
2018-03-04T10:14:05.377Z,61.63
2018-03-04T10:16:40.331Z,60.87
2018-03-04T10:19:15.460Z,70.07
2018-03-04T10:21:50.539Z,66.83
2018-03-04T10:24:25.543Z,72.10
2018-03-04T10:27:00.610Z,72.90
2018-03-04T10:29:35.679Z,68.10
2018-03-04T10:32:10.724Z,73.10
2018-03-04T10:34:45.597Z,71.90
2018-03-04T10:37:20.643Z,61.60
2018-03-04T10:39:55.536Z,59.10
2018-03-04T10:42:31.248Z,70.33
2018-03-04T10:45:05.592Z,66.30
2018-03-04T10:47:40.820Z,75.93
2018-03-04T10:50:16.031Z,54.43
2018-03-04T10:52:51.207Z,65.83
2018-03-04T10:55:26.150Z,66.30
2018-03-04T10:58:00.631Z,63.90
2018-03-04T11:00:41.405Z,77.80
2018-03-04T11:03:16.114Z,60.83
2018-03-04T11:05:52.343Z,64.40
2018-03-04T11:08:27.423Z,70.53
2018-03-04T11:11:02.489Z,73.83
2018-03-04T11:13:37.746Z,59.23
2018-03-04T11:16:13.508Z,72.80
2018-03-04T11:18:48.354Z,63.70
2018-03-04T11:21:23.533Z,65.33
2018-03-04T11:23:58.274Z,51.20
2018-03-04T11:26:33.248Z,68.47
2018-03-04T11:29:08.628Z,76.17
2018-03-04T11:31:43.495Z,80.20
2018-03-04T11:34:18.764Z,67.47
2018-03-04T11:36:53.414Z,68.57
2018-03-04T11:39:28.385Z,57.30
2018-03-04T11:42:03.539Z,61.13
2018-03-04T11:44:37.873Z,64.47
2018-03-04T11:47:12.699Z,54.93
2018-03-04T11:49:47.351Z,62.77
2018-03-04T11:52:22.162Z,54.30
2018-03-04T11:54:58.365Z,67.47
2018-03-04T11:57:33.538Z,75.93
2018-03-04T12:00:08.703Z,59.25
2018-03-04T12:02:43.878Z,68.43
2018-03-04T12:05:18.694Z,67.70
2018-03-04T12:07:53.706Z,70.60
2018-03-04T12:10:28.752Z,63.33
2018-03-04T12:13:03.730Z,76.87
2018-03-04T12:15:38.907Z,62.70
2018-03-04T12:18:13.849Z,68.10
2018-03-04T12:20:48.982Z,81.33
2018-03-04T12:23:24.400Z,79.12
2018-03-04T12:25:59.647Z,61.23
2018-03-04T12:28:34.520Z,71.00
2018-03-04T12:31:09.486Z,68.13
2018-03-04T12:33:44.652Z,54.70
2018-03-04T12:36:19.691Z,67.00
2018-03-04T12:38:54.745Z,77.50
2018-03-04T12:41:29.691Z,58.87
2018-03-04T12:44:04.874Z,69.10
2018-03-04T12:46:39.700Z,64.90
2018-03-04T12:49:14.344Z,70.70
2018-03-04T12:51:49.444Z,63.13
2018-03-04T12:54:24.450Z,59.83
2018-03-04T12:56:59.831Z,59.40
2018-03-04T12:59:35.239Z,73.27
2018-03-04T13:02:10.072Z,69.93
2018-03-04T13:04:45.459Z,65.82
2018-03-04T13:07:20.070Z,69.50
2018-03-04T13:09:54.799Z,63.97
2018-03-04T13:12:29.860Z,67.70
2018-03-04T13:15:04.992Z,73.80
2018-03-04T13:17:40.111Z,71.83
2018-03-04T13:20:15.220Z,71.10
2018-03-04T13:22:51.196Z,61.70
2018-03-04T13:25:26.520Z,67.20
2018-03-04T13:28:01.871Z,72.35
2018-03-04T13:30:36.564Z,65.80
2018-03-04T13:33:11.544Z,75.17
2018-03-04T13:35:46.146Z,63.07
2018-03-04T13:38:21.067Z,54.93
2018-03-04T13:40:56.046Z,50.97
2018-03-04T13:43:30.999Z,64.83
2018-03-04T13:46:06.653Z,62.10
2018-03-04T13:48:40.974Z,60.00
2018-03-04T13:51:16.147Z,66.63
2018-03-04T13:53:53.024Z,60.05
2018-03-04T13:56:27.703Z,64.27
2018-03-04T13:59:02.740Z,68.57
2018-03-04T14:01:37.575Z,66.23
2018-03-04T14:04:13.891Z,63.90
2018-03-04T14:06:49.126Z,71.37
2018-03-04T14:09:23.859Z,56.47
2018-03-04T14:11:58.951Z,71.05
2018-03-04T14:14:33.970Z,64.03
2018-03-04T14:17:09.133Z,67.90
2018-03-04T14:19:44.592Z,72.93
2018-03-04T14:22:19.554Z,65.25
2018-03-04T14:24:54.983Z,70.85
2018-03-04T14:27:29.834Z,65.95
2018-03-04T14:30:04.343Z,68.53
2018-03-04T14:32:38.719Z,59.73
2018-03-04T14:35:14.043Z,51.23
2018-03-04T14:37:49.208Z,58.33
2018-03-04T14:40:24.713Z,53.80
2018-03-04T14:42:59.639Z,57.63
2018-03-04T14:45:35.071Z,62.23
2018-03-04T14:48:10.087Z,58.73
2018-03-04T14:50:45.153Z,60.03
2018-03-04T14:53:20.100Z,59.47
2018-03-04T14:55:55.171Z,59.43
2018-03-04T14:58:30.740Z,62.27
2018-03-04T15:01:06.070Z,65.30
2018-03-04T15:03:40.891Z,57.13
2018-03-04T15:06:15.904Z,58.03
2018-03-04T15:08:50.759Z,60.63
2018-03-04T15:11:25.792Z,54.43
2018-03-04T15:14:00.997Z,54.40
2018-03-04T15:16:35.789Z,61.70
2018-03-04T15:19:11.012Z,57.00
2018-03-04T15:21:46.617Z,59.33
2018-03-04T15:24:22.162Z,54.10
2018-03-04T15:26:57.264Z,55.73
2018-03-04T15:29:31.818Z,55.00
2018-03-04T15:32:06.936Z,64.72
2018-03-04T15:34:41.675Z,59.70
2018-03-04T15:37:16.920Z,59.80
2018-03-04T15:39:52.239Z,59.00
2018-03-04T15:42:26.844Z,58.87
2018-03-04T15:45:01.381Z,46.05
2018-03-04T15:47:36.827Z,61.13
2018-03-04T15:50:11.683Z,58.50
2018-03-04T15:52:47.312Z,59.93
2018-03-04T15:55:21.987Z,58.00
2018-03-04T15:57:57.049Z,59.47
2018-03-04T16:00:32.829Z,54.37
2018-03-04T16:03:08.065Z,58.93
2018-03-04T16:05:43.103Z,55.03
2018-03-04T16:08:18.333Z,53.40
2018-03-04T16:10:53.460Z,62.00
2018-03-04T16:13:28.520Z,61.33
2018-03-04T16:16:03.650Z,56.60
2018-03-04T16:18:39.049Z,53.00
2018-03-04T16:21:13.993Z,57.55
2018-03-04T16:23:48.504Z,57.30
2018-03-04T16:26:23.652Z,52.27
2018-03-04T16:28:59.204Z,53.53
2018-03-04T16:31:34.060Z,58.73
2018-03-04T16:34:09.235Z,56.30
2018-03-04T16:36:44.413Z,57.10
2018-03-04T16:39:19.936Z,53.83
2018-03-04T16:41:55.312Z,59.10
2018-03-04T16:44:30.560Z,60.93
2018-03-04T16:47:04.929Z,55.57
2018-03-04T16:49:40.135Z,53.00
2018-03-04T16:52:14.564Z,53.30
2018-03-04T16:54:50.984Z,59.60
2018-03-04T16:57:26.706Z,54.37
2018-03-04T17:00:01.380Z,55.53
2018-03-04T17:02:36.418Z,51.40
2018-03-04T17:05:11.920Z,53.03
2018-03-04T17:07:46.775Z,56.47
2018-03-04T17:10:22.085Z,58.13
2018-03-04T17:12:57.304Z,53.77
2018-03-04T17:15:32.459Z,52.23
2018-03-04T17:18:07.878Z,55.23
2018-03-04T17:20:42.512Z,60.60
2018-03-04T17:23:17.599Z,62.43
2018-03-04T17:25:53.496Z,63.53
2018-03-04T17:28:28.534Z,57.33
2018-03-04T17:31:03.955Z,58.13
2018-03-04T17:33:38.585Z,57.00
2018-03-04T17:36:14.196Z,59.17
2018-03-04T17:38:48.767Z,62.77
2018-03-04T17:41:23.907Z,58.23
2018-03-04T17:43:59.244Z,68.57
2018-03-04T17:46:34.116Z,60.50
2018-03-04T17:49:09.159Z,64.20
2018-03-04T17:51:44.128Z,66.93
2018-03-04T17:54:19.169Z,64.37
2018-03-04T17:56:53.532Z,58.87
2018-03-04T17:59:28.516Z,60.93
2018-03-04T18:02:03.564Z,58.23
2018-03-04T18:04:39.319Z,70.20
2018-03-04T18:07:14.662Z,60.57
2018-03-04T18:09:50.301Z,61.63
2018-03-04T18:12:25.270Z,69.20
2018-03-04T18:15:00.707Z,57.80
2018-03-04T18:17:35.683Z,60.90
2018-03-04T18:20:10.734Z,61.37
2018-03-04T18:22:45.816Z,70.27
2018-03-04T18:25:20.580Z,67.47
2018-03-04T18:27:55.483Z,63.87
2018-03-04T18:30:30.204Z,53.90
2018-03-04T18:33:05.582Z,61.67
2018-03-04T18:35:40.538Z,60.47
2018-03-04T18:38:15.635Z,56.27
2018-03-04T18:40:50.769Z,65.93
2018-03-04T18:43:25.709Z,61.30
2018-03-04T18:46:01.303Z,66.03
2018-03-04T18:48:36.839Z,58.60
2018-03-04T18:51:12.947Z,63.83
2018-03-04T18:53:47.971Z,63.57
2018-03-04T18:56:22.947Z,59.90
2018-03-04T18:58:58.296Z,62.35
2018-03-04T19:01:33.289Z,63.60
2018-03-04T19:04:08.623Z,68.13
2018-03-04T19:06:43.700Z,56.03
2018-03-04T19:09:18.654Z,65.70
2018-03-04T19:11:53.896Z,66.23
2018-03-04T19:14:28.944Z,63.40
2018-03-04T19:17:03.651Z,65.10
2018-03-04T19:19:38.908Z,62.23
2018-03-04T19:22:14.323Z,61.97
2018-03-04T19:24:49.496Z,61.60
2018-03-04T19:27:24.633Z,59.97
2018-03-04T19:29:59.648Z,63.42
2018-03-04T19:32:34.019Z,53.40
2018-03-04T19:35:08.854Z,62.17
2018-03-04T19:37:43.475Z,65.33
2018-03-04T19:40:18.775Z,58.70
2018-03-04T19:42:54.056Z,45.87
2018-03-04T19:45:29.803Z,63.40
2018-03-04T19:48:05.073Z,53.97
2018-03-04T19:50:40.735Z,63.87
2018-03-04T19:53:15.747Z,58.73
2018-03-04T19:55:50.808Z,54.40
2018-03-04T19:58:25.988Z,54.80
2018-03-04T20:01:01.443Z,59.77
2018-03-04T20:03:36.464Z,63.03
2018-03-04T20:06:11.725Z,63.33
2018-03-04T20:08:47.076Z,57.83
2018-03-04T20:11:21.741Z,71.37
2018-03-04T20:13:56.952Z,63.97
2018-03-04T20:16:32.376Z,71.55
2018-03-04T20:19:06.860Z,63.13
2018-03-04T20:21:41.346Z,69.30
2018-03-04T20:24:16.556Z,58.70
2018-03-04T20:26:51.680Z,59.05
2018-03-04T20:29:26.844Z,59.40
2018-03-04T20:32:01.969Z,60.83
2018-03-04T20:34:36.739Z,61.60
2018-03-04T20:37:11.918Z,67.00
2018-03-04T20:39:47.461Z,44.40
2018-03-04T20:42:22.494Z,54.53
2018-03-04T20:44:57.841Z,59.28
2018-03-04T20:47:32.675Z,60.22
2018-03-04T20:50:07.652Z,56.28
2018-03-04T20:52:42.764Z,59.77
2018-03-04T20:55:17.644Z,57.03
2018-03-04T20:57:53.954Z,56.03
2018-03-04T21:00:28.648Z,62.57
2018-03-04T21:03:03.996Z,59.20
2018-03-04T21:05:38.971Z,58.80
2018-03-04T21:08:13.964Z,55.17
2018-03-04T21:10:49.144Z,54.17
2018-03-04T21:13:24.102Z,52.20
2018-03-04T21:15:58.907Z,60.47
2018-03-04T21:18:34.467Z,57.42
2018-03-04T21:21:09.339Z,62.10
2018-03-04T21:23:44.336Z,60.90
2018-03-04T21:26:19.376Z,59.80
2018-03-04T21:28:54.282Z,65.60
2018-03-04T21:31:29.767Z,60.23
2018-03-04T21:34:05.200Z,58.40
2018-03-04T21:36:40.163Z,60.90
2018-03-04T21:39:15.615Z,56.37
2018-03-04T21:41:50.358Z,54.20
2018-03-04T21:44:25.266Z,51.10
2018-03-04T21:47:00.775Z,56.63
2018-03-04T21:49:35.637Z,55.78
2018-03-04T21:52:11.050Z,60.45
2018-03-04T21:54:46.845Z,53.53
2018-03-04T21:57:21.837Z,52.97
2018-03-04T21:59:57.000Z,53.43
2018-03-04T22:02:31.895Z,50.90
2018-03-04T22:05:06.887Z,57.28
2018-03-04T22:07:41.938Z,44.70
2018-03-04T22:10:16.891Z,53.70
2018-03-04T22:12:52.072Z,53.03
2018-03-04T22:15:27.054Z,56.50
2018-03-04T22:18:02.156Z,52.43
2018-03-04T22:20:37.325Z,53.33
2018-03-04T22:23:12.259Z,52.50
2018-03-04T22:25:47.339Z,51.00
2018-03-04T22:28:22.312Z,67.03
2018-03-04T22:30:57.552Z,57.20
2018-03-04T22:33:32.191Z,50.10
2018-03-04T22:36:07.257Z,49.10
2018-03-04T22:38:42.331Z,45.87
2018-03-04T22:41:17.859Z,50.00
2018-03-04T22:43:54.288Z,47.10
2018-03-04T22:46:29.262Z,44.80
2018-03-04T22:49:04.700Z,43.80
2018-03-04T22:51:39.494Z,55.10
2018-03-04T22:54:14.598Z,46.73
2018-03-04T22:56:50.068Z,45.53
2018-03-04T22:59:25.075Z,51.80
2018-03-04T23:02:00.277Z,51.50
2018-03-04T23:04:35.263Z,25.57
2018-03-04T23:07:10.511Z,49.85
2018-03-04T23:09:45.251Z,48.03
2018-03-04T23:12:20.450Z,51.60
2018-03-04T23:14:55.960Z,44.47
2018-03-04T23:17:30.933Z,52.47
2018-03-04T23:20:05.934Z,34.42
2018-03-04T23:22:41.193Z,49.73
2018-03-04T23:25:16.429Z,55.20
2018-03-04T23:27:51.509Z,51.17
2018-03-04T23:30:27.140Z,42.83
2018-03-04T23:33:02.055Z,49.20
2018-03-04T23:35:37.057Z,45.27
2018-03-04T23:38:12.479Z,32.03
2018-03-04T23:40:47.418Z,43.30
2018-03-04T23:43:22.417Z,46.57
2018-03-04T23:45:57.336Z,42.78
2018-03-04T23:48:32.597Z,51.87
2018-03-04T23:51:07.557Z,47.77
2018-03-04T23:53:42.641Z,53.03
2018-03-04T23:56:18.171Z,49.93
2018-03-04T23:58:55.133Z,47.38
